createdAt,value
2019-04-03T00:00:04.598Z,8.47
2019-04-03T00:05:04.548Z,8.35
2019-04-03T00:10:06.508Z,8.24
2019-04-03T00:15:03.953Z,8.17
2019-04-03T00:20:03.940Z,8.2
2019-04-03T00:25:04.710Z,8.22
2019-04-03T00:30:02.638Z,8.14
2019-04-03T00:35:04.377Z,8.02
2019-04-03T00:40:05.090Z,8.01
2019-04-03T00:45:03.198Z,7.98
2019-04-03T00:50:03.539Z,7.92
2019-04-03T00:55:03.628Z,7.88
2019-04-03T01:00:03.848Z,7.88
2019-04-03T01:05:07.039Z,7.79
2019-04-03T01:10:02.668Z,7.69
2019-04-03T01:15:02.311Z,7.59
2019-04-03T01:20:04.519Z,7.6
2019-04-03T01:25:08.740Z,7.61
2019-04-03T01:30:03.873Z,7.57
2019-04-03T01:35:05.593Z,7.56
2019-04-03T01:40:05.353Z,7.57
2019-04-03T01:45:02.298Z,7.56
2019-04-03T01:50:06.267Z,7.52
2019-04-03T01:55:04.024Z,7.48
2019-04-03T02:00:02.376Z,7.41
2019-04-03T02:05:03.262Z,7.33
2019-04-03T02:10:03.238Z,7.29
2019-04-03T02:15:02.084Z,7.25
2019-04-03T02:20:03.851Z,7.26
2019-04-03T02:25:04.645Z,7.27
2019-04-03T02:30:04.082Z,7.25
2019-04-03T02:35:07.676Z,7.23
2019-04-03T02:40:08.016Z,7.18
2019-04-03T02:45:03.757Z,7.18
2019-04-03T02:50:08.469Z,7.15
2019-04-03T02:55:07.273Z,7.18
2019-04-03T03:00:06.064Z,7.18
2019-04-03T03:05:07.625Z,7.15
2019-04-03T03:10:07.139Z,7.16
2019-04-03T03:15:04.733Z,7.13
2019-04-03T03:20:07.608Z,7.12
2019-04-03T03:25:05.141Z,7.11
2019-04-03T03:30:02.330Z,7.08
2019-04-03T03:35:09.075Z,7.08
2019-04-03T03:40:04.556Z,7.03
2019-04-03T03:45:02.103Z,7.04
2019-04-03T03:50:03.939Z,7.11
2019-04-03T03:55:04.752Z,7.15
2019-04-03T04:00:02.267Z,7.2
2019-04-03T04:05:04.042Z,7.22
2019-04-03T04:10:02.471Z,7.23
2019-04-03T04:15:03.116Z,7.22
2019-04-03T04:20:05.440Z,7.23
2019-04-03T04:25:05.490Z,7.22
2019-04-03T04:30:02.454Z,7.16
2019-04-03T04:35:04.201Z,7.14
2019-04-03T04:40:05.343Z,7.13
2019-04-03T04:45:02.091Z,7.11
2019-04-03T04:50:05.332Z,7.1
2019-04-03T04:55:05.878Z,7.08
2019-04-03T05:00:01.967Z,7.04
2019-04-03T05:05:08.269Z,6.97
2019-04-03T05:10:03.911Z,6.93
2019-04-03T05:15:02.512Z,6.91
2019-04-03T05:20:02.842Z,6.82
2019-04-03T05:25:02.927Z,6.85
2019-04-03T05:30:02.349Z,6.86
2019-04-03T05:35:03.027Z,6.89
2019-04-03T05:40:02.916Z,7.04
2019-04-03T05:45:04.521Z,6.93
2019-04-03T05:50:03.613Z,6.88
2019-04-03T05:55:02.888Z,6.91
2019-04-03T06:00:02.871Z,6.99
2019-04-03T06:05:06.034Z,6.76
2019-04-03T06:10:05.374Z,6.74
2019-04-03T06:15:03.181Z,6.84
2019-04-03T06:20:04.294Z,6.78
2019-04-03T06:25:06.062Z,6.52
2019-04-03T06:30:02.418Z,6.66
2019-04-03T06:35:05.815Z,6.38
2019-04-03T06:40:05.996Z,6.49
2019-04-03T06:45:03.307Z,6.24
2019-04-03T06:50:05.856Z,6.31
2019-04-03T06:55:04.852Z,6.05
2019-04-03T07:00:03.397Z,6.05
2019-04-03T07:05:04.915Z,6.1
2019-04-03T07:10:07.007Z,6.24
2019-04-03T07:15:02.530Z,6.34
2019-04-03T07:20:13.178Z,6.25
2019-04-03T07:25:04.553Z,6.39
2019-04-03T07:30:02.922Z,6.4
2019-04-03T07:35:07.553Z,6.28
2019-04-03T07:40:04.487Z,6.31
2019-04-03T07:45:03.095Z,6.4
2019-04-03T07:50:04.453Z,6.37
2019-04-03T07:55:04.742Z,6.35
2019-04-03T08:00:05.609Z,6.35
2019-04-03T08:05:04.355Z,6.4
2019-04-03T08:10:03.509Z,6.56
2019-04-03T08:15:05.219Z,6.54
2019-04-03T08:20:04.346Z,6.7
2019-04-03T08:25:04.687Z,7.03
2019-04-03T08:30:03.880Z,7.28
2019-04-03T08:35:04.683Z,7.34
2019-04-03T08:40:04.270Z,7.43
2019-04-03T08:45:05.522Z,7.29
2019-04-03T08:50:04.370Z,7.43
2019-04-03T08:55:04.447Z,7.5
2019-04-03T09:00:02.233Z,7.47
2019-04-03T09:05:09.058Z,7.39
2019-04-03T09:10:02.527Z,7.3
2019-04-03T09:15:04.647Z,7.38
2019-04-03T09:20:05.587Z,7.41
2019-04-03T09:25:06.406Z,7.08
2019-04-03T09:30:07.452Z,7.38
2019-04-03T09:35:05.586Z,7.25
2019-04-03T09:40:06.044Z,7.15
2019-04-03T09:45:03.019Z,7.13
2019-04-03T09:50:03.557Z,7.14
2019-04-03T09:55:03.160Z,7.25
2019-04-03T10:00:03.005Z,7.35
2019-04-03T10:05:03.153Z,7.42
2019-04-03T10:10:02.823Z,7.62
2019-04-03T10:15:01.193Z,7.64
2019-04-03T10:20:03.162Z,7.84
2019-04-03T10:25:06.179Z,7.83
2019-04-03T10:30:04.265Z,7.86
2019-04-03T10:35:05.071Z,7.88
2019-04-03T10:40:05.529Z,7.85
2019-04-03T10:45:02.823Z,7.73
2019-04-03T10:50:05.387Z,7.69
2019-04-03T10:55:05.377Z,7.59
2019-04-03T11:00:03.227Z,7.7
2019-04-03T11:05:06.102Z,7.67
2019-04-03T11:10:05.313Z,7.86
2019-04-03T11:15:02.725Z,7.92
2019-04-03T11:20:05.236Z,7.86
2019-04-03T11:25:05.253Z,7.82
2019-04-03T11:30:02.858Z,7.86
2019-04-03T11:35:04.351Z,7.89
2019-04-03T11:40:05.476Z,8.16
2019-04-03T11:45:04.628Z,8.38
2019-04-03T11:50:04.464Z,8.38
2019-04-03T11:55:04.051Z,8.53
2019-04-03T12:00:02.657Z,8.34
2019-04-03T12:05:04.446Z,8.33
2019-04-03T12:10:04.538Z,8.35
2019-04-03T12:15:03.350Z,8.35
2019-04-03T12:20:04.274Z,8.34
2019-04-03T12:25:05.077Z,8.29
2019-04-03T12:30:02.975Z,8.3
2019-04-03T12:35:03.806Z,8.24
2019-04-03T12:40:04.969Z,8.27
2019-04-03T12:45:03.008Z,8.33
2019-04-03T12:50:04.233Z,8.45
2019-04-03T12:55:04.570Z,8.48
2019-04-03T13:00:02.996Z,8.46
2019-04-03T13:05:06.102Z,8.49
2019-04-03T13:10:04.613Z,8.48
2019-04-03T13:15:05.843Z,8.44
2019-04-03T13:20:05.689Z,8.45
2019-04-03T13:25:05.378Z,8.53
2019-04-03T13:30:03.540Z,8.55
2019-04-03T13:35:05.404Z,8.57
2019-04-03T13:40:06.272Z,8.58
2019-04-03T13:45:02.895Z,8.5
2019-04-03T13:50:05.102Z,8.53
2019-04-03T13:55:05.703Z,8.5
2019-04-03T14:00:06.835Z,8.49
2019-04-03T14:05:04.502Z,8.51
2019-04-03T14:10:03.275Z,8.62
2019-04-03T14:15:05.012Z,8.65
2019-04-03T14:20:04.982Z,8.7
2019-04-03T14:25:17.756Z,8.7
2019-04-03T14:30:02.587Z,8.66
2019-04-03T14:35:23.785Z,8.66
2019-04-03T14:40:04.399Z,8.62
2019-04-03T14:45:02.701Z,8.6
2019-04-03T14:50:05.199Z,8.6
2019-04-03T14:55:16.045Z,8.5
2019-04-03T15:00:03.042Z,8.45
2019-04-03T15:05:06.522Z,8.45
2019-04-03T15:10:03.539Z,8.38
2019-04-03T15:15:02.448Z,8.26
2019-04-03T15:20:04.540Z,8.07
2019-04-03T15:25:05.063Z,7.92
2019-04-03T15:30:02.709Z,7.86
2019-04-03T15:35:04.198Z,7.75
2019-04-03T15:40:04.814Z,7.68
2019-04-03T15:45:02.311Z,7.57
2019-04-03T15:50:03.245Z,7.48
2019-04-03T15:55:03.952Z,7.44
2019-04-03T16:00:03.532Z,7.4
2019-04-03T16:05:05.059Z,7.31
2019-04-03T16:10:03.864Z,7.25
2019-04-03T16:15:03.478Z,7.25
2019-04-03T16:20:04.479Z,7.19
2019-04-03T16:25:06.843Z,7.14
2019-04-03T16:30:02.815Z,7.11
2019-04-03T16:35:06.031Z,7.12
2019-04-03T16:40:05.733Z,7.07
2019-04-03T16:45:04.075Z,7.02
2019-04-03T16:50:05.718Z,7
2019-04-03T16:55:05.404Z,7
2019-04-03T17:00:02.647Z,6.96
2019-04-03T17:05:05.202Z,6.94
2019-04-03T17:10:03.130Z,6.9
2019-04-03T17:15:05.284Z,6.87
2019-04-03T17:20:04.561Z,6.81
2019-04-03T17:25:04.569Z,6.74
2019-04-03T17:30:02.935Z,6.75
2019-04-03T17:35:06.317Z,6.71
2019-04-03T17:40:05.900Z,6.7
2019-04-03T17:45:03.102Z,6.66
2019-04-03T17:50:06.182Z,6.61
2019-04-03T17:55:05.309Z,6.57
2019-04-03T18:00:03.133Z,6.55
2019-04-03T18:05:06.403Z,6.55
2019-04-03T18:10:06.078Z,6.54
2019-04-03T18:15:02.760Z,6.53
2019-04-03T18:20:03.887Z,6.51
2019-04-03T18:25:08.040Z,6.48
2019-04-03T18:30:03.110Z,6.5
2019-04-03T18:35:07.067Z,6.5
2019-04-03T18:40:05.994Z,6.46
2019-04-03T18:45:02.861Z,6.45
2019-04-03T18:50:04.945Z,6.42
2019-04-03T18:55:04.665Z,6.45
2019-04-03T19:00:03.075Z,6.45
2019-04-03T19:05:04.562Z,6.42
2019-04-03T19:10:07.176Z,6.38
2019-04-03T19:15:03.167Z,6.37
2019-04-03T19:25:04.807Z,6.27
2019-04-03T19:30:01.971Z,6.24
2019-04-03T19:35:07.323Z,6.19
2019-04-03T19:40:04.959Z,6.16
2019-04-03T19:45:04.418Z,6.13
2019-04-03T19:50:06.386Z,6.09
2019-04-03T19:55:06.825Z,6.02
2019-04-03T20:00:05.343Z,6
2019-04-03T20:05:07.096Z,6
2019-04-03T20:10:08.078Z,6
2019-04-03T20:15:06.135Z,5.99
2019-04-03T20:20:05.639Z,5.98
2019-04-03T20:25:04.752Z,5.97
2019-04-03T20:30:04.579Z,5.94
2019-04-03T20:35:04.859Z,5.9
2019-04-03T20:40:05.792Z,5.91
2019-04-03T20:45:08.529Z,5.87
2019-04-03T20:50:06.900Z,5.86
2019-04-03T20:55:07.393Z,5.84
2019-04-03T21:00:08.646Z,5.79
2019-04-03T21:05:07.679Z,5.74
2019-04-03T21:10:06.224Z,5.71
2019-04-03T21:15:08.519Z,5.66
2019-04-03T21:20:05.359Z,5.62
2019-04-03T21:25:07.044Z,5.61
2019-04-03T21:30:05.546Z,5.57
2019-04-03T21:35:06.334Z,5.6
2019-04-03T21:40:07.950Z,5.61
2019-04-03T21:45:08.897Z,5.62
2019-04-03T21:50:06.909Z,5.62
2019-04-03T21:55:08.154Z,5.6
2019-04-03T22:00:08.357Z,5.61
2019-04-03T22:05:07.264Z,5.6
2019-04-03T22:10:03.969Z,5.61
2019-04-03T22:15:04.069Z,5.56
2019-04-03T22:20:04.263Z,5.59
2019-04-03T22:25:04.864Z,5.56
2019-04-03T22:30:05.598Z,5.54
2019-04-03T22:35:05.322Z,5.53
2019-04-03T22:40:10.554Z,5.56
2019-04-03T22:45:08.854Z,5.56
2019-04-03T22:50:08.786Z,5.55
2019-04-03T22:55:08.264Z,5.55
2019-04-03T23:00:08.326Z,5.52
2019-04-03T23:05:08.561Z,5.52
2019-04-03T23:10:01.902Z,5.52
2019-04-03T23:15:12.946Z,5.48
2019-04-03T23:20:12.045Z,5.41
2019-04-03T23:25:08.175Z,5.41
2019-04-03T23:30:05.058Z,5.38
2019-04-03T23:35:08.258Z,5.33
2019-04-03T23:40:10.315Z,5.36
2019-04-03T23:45:08.557Z,5.37
2019-04-03T23:50:06.167Z,5.33
2019-04-03T23:55:07.655Z,5.31
